createdAt,value
2023-05-15T00:00:40.428Z,100.00
2023-05-15T00:03:07.444Z,100.00
2023-05-15T00:05:34.041Z,100.00
2023-05-15T00:08:00.581Z,100.00
2023-05-15T00:10:27.047Z,100.00
2023-05-15T00:12:53.560Z,100.00
2023-05-15T00:15:20.042Z,100.00
2023-05-15T00:17:46.557Z,100.00
2023-05-15T00:20:13.137Z,100.00
2023-05-15T00:22:39.612Z,100.00
2023-05-15T00:25:06.493Z,100.00
2023-05-15T00:27:33.425Z,100.00
2023-05-15T00:29:59.968Z,100.00
2023-05-15T00:32:26.456Z,100.00
2023-05-15T00:34:52.980Z,100.00
2023-05-15T00:37:19.443Z,100.00
2023-05-15T00:39:46.046Z,100.00
2023-05-15T00:42:12.894Z,100.00
2023-05-15T00:44:40.298Z,100.00
2023-05-15T00:47:07.643Z,100.00
2023-05-15T00:49:35.546Z,100.00
2023-05-15T00:52:03.704Z,100.00
2023-05-15T00:54:30.510Z,100.00
2023-05-15T00:56:58.115Z,100.00
2023-05-15T00:59:34.515Z,100.00
2023-05-15T01:02:01.186Z,100.00
2023-05-15T01:04:27.958Z,100.00
2023-05-15T01:06:54.570Z,100.00
2023-05-15T01:09:23.612Z,100.00
2023-05-15T01:11:53.379Z,100.00
2023-05-15T01:14:19.922Z,100.00
2023-05-15T01:16:46.422Z,100.00
2023-05-15T01:19:12.972Z,100.00
2023-05-15T01:21:57.838Z,100.00
2023-05-15T01:24:27.383Z,100.00
2023-05-15T01:27:02.781Z,100.00
2023-05-15T01:29:47.003Z,100.00
2023-05-15T01:32:20.433Z,100.00
2023-05-15T01:34:47.010Z,100.00
2023-05-15T01:37:14.691Z,100.00
2023-05-15T01:39:42.943Z,100.00
2023-05-15T01:42:10.829Z,100.00
2023-05-15T01:44:40.547Z,100.00
2023-05-15T01:47:10.251Z,100.00
2023-05-15T01:49:38.211Z,100.00
2023-05-15T01:52:10.508Z,100.00
2023-05-15T01:54:37.325Z,100.00
2023-05-15T01:57:04.521Z,100.00
2023-05-15T01:59:31.793Z,100.00
2023-05-15T02:01:58.688Z,100.00
2023-05-15T02:04:25.772Z,100.00
2023-05-15T02:06:53.512Z,100.00
2023-05-15T02:09:21.147Z,100.00
2023-05-15T02:11:47.801Z,100.00
2023-05-15T02:14:14.835Z,100.00
2023-05-15T02:16:41.461Z,100.00
2023-05-15T02:19:08.092Z,100.00
2023-05-15T02:21:35.099Z,100.00
2023-05-15T02:24:01.625Z,100.00
2023-05-15T02:26:40.632Z,100.00
2023-05-15T02:29:18.390Z,100.00
2023-05-15T02:31:44.833Z,100.00
2023-05-15T02:34:11.291Z,100.00
2023-05-15T02:36:40.639Z,100.00
2023-05-15T02:39:09.147Z,100.00
2023-05-15T02:41:36.934Z,100.00
2023-05-15T02:44:03.836Z,100.00
2023-05-15T02:46:31.024Z,100.00
2023-05-15T02:48:59.022Z,100.00
2023-05-15T02:51:25.639Z,100.00
2023-05-15T02:53:52.225Z,100.00
2023-05-15T02:56:18.723Z,100.00
2023-05-15T02:58:45.320Z,100.00
2023-05-15T03:01:12.329Z,100.00
2023-05-15T03:03:38.847Z,100.00
2023-05-15T03:06:05.389Z,100.00
2023-05-15T03:08:31.885Z,100.00
2023-05-15T03:10:58.459Z,100.00
2023-05-15T03:13:25.112Z,100.00
2023-05-15T03:15:52.136Z,100.00
2023-05-15T03:18:19.645Z,100.00
2023-05-15T03:20:48.353Z,100.00
2023-05-15T03:23:14.826Z,100.00
2023-05-15T03:25:41.312Z,100.00
2023-05-15T03:28:07.830Z,100.00
2023-05-15T03:30:34.386Z,100.00
2023-05-15T03:33:03.690Z,100.00
2023-05-15T03:35:32.206Z,100.00
2023-05-15T03:37:58.760Z,100.00
2023-05-15T03:40:25.240Z,100.00
2023-05-15T03:42:53.445Z,100.00
2023-05-15T03:45:20.933Z,100.00
2023-05-15T03:47:48.498Z,100.00
2023-05-15T03:50:15.521Z,100.00
2023-05-15T03:52:42.413Z,100.00
2023-05-15T03:55:09.049Z,100.00
2023-05-15T03:57:36.506Z,100.00
2023-05-15T04:00:07.366Z,100.00
2023-05-15T04:02:39.030Z,100.00
2023-05-15T04:05:06.211Z,100.00
2023-05-15T04:07:33.248Z,100.00
2023-05-15T04:10:02.859Z,100.00
2023-05-15T04:12:29.828Z,100.00
2023-05-15T04:14:59.707Z,100.00
2023-05-15T04:17:26.294Z,100.00
2023-05-15T04:19:52.787Z,100.00
2023-05-15T04:22:19.225Z,100.00
2023-05-15T04:24:45.719Z,100.00
2023-05-15T04:27:12.234Z,100.00
2023-05-15T04:29:38.768Z,100.00
2023-05-15T04:32:05.262Z,100.00
2023-05-15T04:34:31.798Z,100.00
2023-05-15T04:36:58.303Z,100.00
2023-05-15T04:39:24.862Z,100.00
2023-05-15T04:41:51.360Z,100.00
2023-05-15T04:44:17.989Z,100.00
2023-05-15T04:46:44.485Z,100.00
2023-05-15T04:49:10.944Z,100.00
2023-05-15T04:51:37.489Z,100.00
2023-05-15T04:54:04.101Z,100.00
2023-05-15T04:56:30.617Z,100.00
2023-05-15T04:58:57.060Z,100.00
2023-05-15T05:01:23.593Z,100.00
2023-05-15T05:03:50.285Z,100.00
2023-05-15T05:06:16.840Z,100.00
2023-05-15T05:08:43.286Z,100.00
2023-05-15T05:11:09.777Z,100.00
2023-05-15T05:13:36.238Z,100.00
2023-05-15T05:16:02.873Z,100.00
2023-05-15T05:18:30.474Z,100.00
2023-05-15T05:21:03.704Z,100.00
2023-05-15T05:23:30.585Z,100.00
2023-05-15T05:25:57.304Z,100.00
2023-05-15T05:28:23.798Z,100.00
2023-05-15T05:30:50.392Z,100.00
2023-05-15T05:33:16.898Z,100.00
2023-05-15T05:35:43.375Z,100.00
2023-05-15T05:38:09.808Z,98.20
2023-05-15T05:40:37.994Z,97.82
2023-05-15T05:43:04.440Z,96.07
2023-05-15T05:45:31.114Z,94.81
2023-05-15T05:47:57.728Z,94.45
2023-05-15T05:50:24.374Z,91.47
2023-05-15T05:52:50.870Z,90.46
2023-05-15T05:55:17.304Z,89.53
2023-05-15T05:57:43.759Z,90.23
2023-05-15T06:00:10.930Z,89.68
2023-05-15T06:02:38.530Z,90.77
2023-05-15T06:05:06.402Z,86.47
2023-05-15T06:07:33.728Z,86.12
2023-05-15T06:10:00.273Z,85.91
2023-05-15T06:12:27.961Z,83.63
2023-05-15T06:14:54.470Z,84.18
2023-05-15T06:17:21.311Z,82.71
2023-05-15T06:19:47.877Z,81.97
2023-05-15T06:22:14.387Z,79.27
2023-05-15T06:24:40.918Z,81.47
2023-05-15T06:27:07.363Z,79.10
2023-05-15T06:29:34.012Z,79.51
2023-05-15T06:32:00.596Z,78.34
2023-05-15T06:34:27.064Z,80.40
2023-05-15T06:36:53.572Z,80.96
2023-05-15T06:39:20.006Z,77.67
2023-05-15T06:41:46.456Z,76.81
2023-05-15T06:44:12.965Z,74.29
2023-05-15T06:46:39.595Z,71.94
2023-05-15T06:49:06.244Z,69.75
2023-05-15T06:51:32.719Z,69.60
2023-05-15T06:53:59.364Z,68.32
2023-05-15T06:56:26.000Z,66.88
2023-05-15T06:58:52.486Z,69.60
2023-05-15T07:01:18.942Z,69.16
2023-05-15T07:03:45.614Z,69.57
2023-05-15T07:06:12.076Z,65.51
2023-05-15T07:08:38.508Z,64.46
2023-05-15T07:11:05.126Z,68.46
2023-05-15T07:13:31.598Z,68.43
2023-05-15T07:15:58.083Z,65.54
2023-05-15T07:18:24.657Z,65.84
2023-05-15T07:20:51.309Z,69.05
2023-05-15T07:23:17.756Z,66.12
2023-05-15T07:25:45.918Z,64.17
2023-05-15T07:28:12.567Z,60.46
2023-05-15T07:30:39.043Z,57.33
2023-05-15T07:33:06.083Z,58.33
2023-05-15T07:35:32.651Z,61.02
2023-05-15T07:37:59.173Z,60.61
2023-05-15T07:40:25.651Z,60.34
2023-05-15T07:42:52.094Z,59.49
2023-05-15T07:45:18.688Z,59.25
2023-05-15T07:47:46.735Z,55.78
2023-05-15T07:50:13.557Z,52.00
2023-05-15T07:52:40.083Z,54.01
2023-05-15T07:55:06.997Z,56.58
2023-05-15T07:57:33.448Z,55.40
2023-05-15T07:59:59.938Z,49.57
2023-05-15T08:02:26.458Z,49.34
2023-05-15T08:04:53.014Z,49.25
2023-05-15T08:07:19.601Z,50.24
2023-05-15T08:09:46.394Z,50.41
2023-05-15T08:12:21.174Z,52.83
2023-05-15T08:14:51.672Z,45.99
2023-05-15T08:17:19.156Z,48.85
2023-05-15T08:19:45.642Z,48.54
2023-05-15T08:22:12.148Z,48.78
2023-05-15T08:24:39.220Z,50.41
2023-05-15T08:27:06.278Z,49.27
2023-05-15T08:29:33.055Z,50.57
2023-05-15T08:31:59.525Z,47.18
2023-05-15T08:34:26.010Z,45.56
2023-05-15T08:36:52.965Z,48.39
2023-05-15T08:39:19.441Z,55.59
2023-05-15T08:41:48.662Z,59.18
2023-05-15T08:44:15.422Z,59.63
2023-05-15T08:46:41.926Z,55.96
2023-05-15T08:49:15.235Z,61.95
2023-05-15T08:51:41.856Z,60.87
2023-05-15T08:54:08.660Z,64.25
2023-05-15T08:56:35.720Z,63.36
2023-05-15T08:59:02.330Z,67.45
2023-05-15T09:01:28.834Z,70.14
2023-05-15T09:03:55.486Z,67.42
2023-05-15T09:06:22.821Z,67.76
2023-05-15T09:08:50.066Z,66.27
2023-05-15T09:11:16.723Z,66.37
2023-05-15T09:13:43.193Z,66.16
2023-05-15T09:16:09.671Z,68.32
2023-05-15T09:18:38.661Z,67.06
2023-05-15T09:21:34.856Z,66.19
2023-05-15T09:24:20.092Z,65.32
2023-05-15T09:26:48.233Z,65.50
2023-05-15T09:29:18.948Z,58.30
2023-05-15T09:31:48.654Z,61.87
2023-05-15T09:34:15.317Z,62.68
2023-05-15T09:36:45.099Z,57.85
2023-05-15T09:39:12.104Z,53.16
2023-05-15T09:41:41.520Z,50.76
2023-05-15T09:44:19.365Z,49.88
2023-05-15T09:46:48.645Z,47.12
2023-05-15T09:49:15.387Z,49.03
2023-05-15T09:51:43.315Z,51.59
2023-05-15T09:54:14.563Z,49.96
2023-05-15T09:56:43.144Z,44.14
2023-05-15T09:59:12.381Z,46.02
2023-05-15T10:01:38.855Z,45.66
2023-05-15T10:04:06.350Z,43.16
2023-05-15T10:06:41.242Z,43.53
2023-05-15T10:09:10.411Z,42.78
2023-05-15T10:11:41.673Z,43.77
2023-05-15T10:14:09.479Z,39.62
2023-05-15T10:16:37.112Z,43.71
2023-05-15T10:19:05.306Z,45.37
2023-05-15T10:21:36.219Z,47.97
2023-05-15T10:24:03.219Z,48.61
2023-05-15T10:26:35.132Z,49.40
2023-05-15T10:29:02.263Z,51.09
2023-05-15T10:31:29.155Z,40.98
2023-05-15T10:33:55.877Z,47.21
2023-05-15T10:36:22.878Z,44.48
2023-05-15T10:38:49.677Z,48.36
2023-05-15T10:41:18.223Z,44.05
2023-05-15T10:43:45.820Z,39.19
2023-05-15T10:46:13.074Z,39.96
2023-05-15T10:48:40.211Z,39.98
2023-05-15T10:51:13.385Z,37.90
2023-05-15T10:53:39.948Z,44.30
2023-05-15T10:56:06.567Z,46.49
2023-05-15T10:58:34.638Z,42.73
2023-05-15T11:01:01.104Z,41.48
2023-05-15T11:03:47.921Z,39.83
2023-05-15T11:06:15.612Z,40.39
2023-05-15T11:08:45.888Z,37.88
2023-05-15T11:11:30.971Z,38.73
2023-05-15T11:14:07.886Z,37.80
2023-05-15T11:16:52.516Z,39.06
2023-05-15T11:19:22.034Z,37.34
2023-05-15T11:21:53.599Z,36.43
2023-05-15T11:24:20.211Z,34.63
2023-05-15T11:26:46.665Z,32.82
2023-05-15T11:29:19.515Z,32.13
2023-05-15T11:31:46.054Z,29.78
2023-05-15T11:34:13.276Z,33.60
2023-05-15T11:36:39.859Z,32.56
2023-05-15T11:39:15.587Z,28.13
2023-05-15T11:41:42.996Z,31.46
2023-05-15T11:44:09.465Z,30.96
2023-05-15T11:46:36.868Z,27.87
2023-05-15T11:49:03.381Z,28.73
2023-05-15T11:51:30.150Z,28.55
2023-05-15T11:53:58.176Z,27.52
2023-05-15T11:56:25.768Z,29.43
2023-05-15T11:58:54.212Z,31.00
2023-05-15T12:01:20.856Z,28.93
2023-05-15T12:03:48.712Z,28.92
2023-05-15T12:06:15.693Z,28.37
2023-05-15T12:08:42.239Z,29.03
2023-05-15T12:11:08.808Z,28.05
2023-05-15T12:13:35.677Z,28.06
2023-05-15T12:16:03.497Z,29.06
2023-05-15T12:18:33.742Z,27.45
2023-05-15T12:21:00.560Z,28.46
2023-05-15T12:23:28.298Z,29.88
2023-05-15T12:26:00.895Z,25.73
2023-05-15T12:28:28.448Z,28.66
2023-05-15T12:30:55.580Z,28.97
2023-05-15T12:33:22.103Z,28.07
2023-05-15T12:35:58.946Z,28.71
2023-05-15T12:38:27.527Z,27.66
2023-05-15T12:40:54.386Z,29.18
2023-05-15T12:43:24.177Z,31.96
2023-05-15T12:45:52.176Z,30.57
2023-05-15T12:48:18.700Z,32.71
2023-05-15T12:50:45.363Z,33.25
2023-05-15T12:53:13.509Z,33.48
2023-05-15T12:55:40.297Z,31.85
2023-05-15T12:58:08.035Z,35.88
2023-05-15T13:00:35.635Z,34.39
2023-05-15T13:03:02.615Z,33.91
2023-05-15T13:05:32.216Z,33.46
2023-05-15T13:08:03.001Z,34.44
2023-05-15T13:10:32.040Z,35.26
2023-05-15T13:12:58.485Z,33.47
2023-05-15T13:15:26.398Z,34.15
2023-05-15T13:17:56.328Z,32.43
2023-05-15T13:20:24.117Z,33.17
2023-05-15T13:22:51.324Z,33.89
2023-05-15T13:25:18.930Z,33.58
2023-05-15T13:27:45.875Z,34.49
2023-05-15T13:30:13.301Z,34.00
2023-05-15T13:32:39.799Z,34.02
2023-05-15T13:35:06.521Z,32.99
2023-05-15T13:37:33.116Z,32.90
2023-05-15T13:39:59.579Z,30.49
2023-05-15T13:42:26.055Z,32.69
2023-05-15T13:44:52.568Z,31.41
2023-05-15T13:47:19.122Z,32.91
2023-05-15T13:49:46.201Z,34.71
2023-05-15T13:52:12.698Z,33.90
2023-05-15T13:54:39.507Z,33.87
2023-05-15T13:57:05.976Z,33.53
2023-05-15T13:59:32.426Z,30.47
2023-05-15T14:01:58.893Z,34.83
2023-05-15T14:04:25.537Z,33.53
2023-05-15T14:06:52.381Z,31.93
2023-05-15T14:09:18.841Z,32.00
2023-05-15T14:11:45.401Z,32.89
2023-05-15T14:14:11.864Z,33.06
2023-05-15T14:16:38.429Z,32.74
2023-05-15T14:19:05.323Z,33.30
2023-05-15T14:21:31.955Z,32.81
2023-05-15T14:23:58.391Z,34.47
2023-05-15T14:26:24.834Z,35.19
2023-05-15T14:28:51.368Z,34.12
2023-05-15T14:31:17.848Z,35.51
2023-05-15T14:33:44.303Z,36.23
2023-05-15T14:36:10.769Z,33.75
2023-05-15T14:38:37.578Z,34.37
2023-05-15T14:41:04.217Z,33.72
2023-05-15T14:43:30.731Z,34.37
2023-05-15T14:45:57.192Z,35.51
2023-05-15T14:48:23.666Z,34.29
2023-05-15T14:50:50.329Z,30.80
2023-05-15T14:53:16.856Z,33.75
2023-05-15T14:55:43.351Z,31.75
2023-05-15T14:58:11.334Z,32.13
2023-05-15T15:00:38.258Z,32.27
2023-05-15T15:03:04.932Z,31.57
2023-05-15T15:05:31.572Z,31.15
2023-05-15T15:08:00.615Z,31.67
2023-05-15T15:10:27.351Z,32.64
2023-05-15T15:12:54.302Z,34.49
2023-05-15T15:15:21.102Z,34.72
2023-05-15T15:17:47.728Z,34.23
2023-05-15T15:20:15.072Z,34.90
2023-05-15T15:22:41.588Z,35.79
2023-05-15T15:25:08.263Z,36.85
2023-05-15T15:27:37.035Z,35.47
2023-05-15T15:30:08.332Z,36.22
2023-05-15T15:32:35.774Z,35.75
2023-05-15T15:35:02.249Z,37.01
2023-05-15T15:37:30.306Z,36.09
2023-05-15T15:39:57.180Z,36.50
2023-05-15T15:42:23.722Z,36.20
2023-05-15T15:44:50.338Z,34.29
2023-05-15T15:47:16.756Z,34.44
2023-05-15T15:49:43.406Z,35.40
2023-05-15T15:52:09.909Z,36.29
2023-05-15T15:54:36.686Z,37.21
2023-05-15T15:57:03.532Z,35.86
2023-05-15T15:59:30.087Z,36.63
2023-05-15T16:01:57.267Z,35.65
2023-05-15T16:04:23.775Z,36.67
2023-05-15T16:06:50.331Z,36.51
2023-05-15T16:09:19.716Z,36.19
2023-05-15T16:11:46.485Z,38.35
2023-05-15T16:14:13.000Z,41.72
2023-05-15T16:16:39.503Z,42.66
2023-05-15T16:19:06.033Z,40.83
2023-05-15T16:21:32.494Z,41.75
2023-05-15T16:23:58.966Z,43.76
2023-05-15T16:26:25.847Z,43.97
2023-05-15T16:28:52.302Z,46.29
2023-05-15T16:31:18.879Z,46.05
2023-05-15T16:33:45.931Z,46.15
2023-05-15T16:36:12.394Z,46.07
2023-05-15T16:38:38.959Z,46.46
2023-05-15T16:41:05.486Z,48.12
2023-05-15T16:43:31.954Z,47.38
2023-05-15T16:45:58.988Z,47.94
2023-05-15T16:48:27.447Z,46.79
2023-05-15T16:50:53.878Z,47.59
2023-05-15T16:53:20.788Z,47.96
2023-05-15T16:55:47.279Z,47.91
2023-05-15T16:58:13.963Z,47.98
2023-05-15T17:00:40.584Z,49.19
2023-05-15T17:03:07.214Z,50.30
2023-05-15T17:05:33.969Z,51.07
2023-05-15T17:08:00.754Z,51.50
2023-05-15T17:10:27.363Z,50.25
2023-05-15T17:12:54.467Z,51.28
2023-05-15T17:15:20.960Z,52.12
2023-05-15T17:17:47.433Z,51.99
2023-05-15T17:20:13.912Z,52.37
2023-05-15T17:22:40.492Z,52.58
2023-05-15T17:25:07.230Z,52.68
2023-05-15T17:27:35.836Z,53.29
2023-05-15T17:30:02.339Z,53.70
2023-05-15T17:32:28.902Z,54.44
2023-05-15T17:34:55.539Z,54.71
2023-05-15T17:37:21.977Z,55.06
2023-05-15T17:39:48.658Z,54.87
2023-05-15T17:42:15.192Z,54.90
2023-05-15T17:44:43.471Z,55.27
2023-05-15T17:47:10.334Z,54.33
2023-05-15T17:49:37.493Z,53.92
2023-05-15T17:52:04.023Z,55.87
2023-05-15T17:54:30.507Z,57.40
2023-05-15T17:56:57.107Z,57.26
2023-05-15T17:59:23.614Z,57.50
2023-05-15T18:01:50.328Z,56.72
2023-05-15T18:04:16.920Z,58.43
2023-05-15T18:06:43.646Z,58.35
2023-05-15T18:09:10.442Z,59.04
2023-05-15T18:11:36.934Z,59.51
2023-05-15T18:14:03.483Z,59.32
2023-05-15T18:16:31.115Z,58.89
2023-05-15T18:18:57.693Z,59.69
2023-05-15T18:21:24.422Z,60.58
2023-05-15T18:23:50.922Z,60.95
2023-05-15T18:26:17.607Z,60.53
2023-05-15T18:28:44.099Z,61.64
2023-05-15T18:31:10.582Z,63.16
2023-05-15T18:33:37.202Z,62.62
2023-05-15T18:36:05.953Z,63.08
2023-05-15T18:38:33.819Z,62.74
2023-05-15T18:41:00.297Z,62.55
2023-05-15T18:43:26.840Z,62.37
2023-05-15T18:45:54.073Z,62.58
2023-05-15T18:48:20.789Z,62.15
2023-05-15T18:50:47.353Z,61.86
2023-05-15T18:53:13.817Z,63.13
2023-05-15T18:55:40.363Z,64.11
2023-05-15T18:58:06.907Z,65.59
2023-05-15T19:00:38.611Z,66.70
2023-05-15T19:03:06.456Z,67.74
2023-05-15T19:05:34.118Z,68.86
2023-05-15T19:08:00.863Z,68.29
2023-05-15T19:10:29.648Z,69.61
2023-05-15T19:12:56.777Z,70.05
2023-05-15T19:15:23.292Z,72.80
2023-05-15T19:17:49.907Z,75.55
2023-05-15T19:20:16.559Z,76.08
2023-05-15T19:22:43.013Z,77.80
2023-05-15T19:25:10.685Z,81.00
2023-05-15T19:27:37.608Z,81.95
2023-05-15T19:30:04.719Z,82.37
2023-05-15T19:32:31.637Z,82.98
2023-05-15T19:34:58.386Z,85.11
2023-05-15T19:37:24.896Z,88.09
2023-05-15T19:39:51.358Z,87.85
2023-05-15T19:42:17.861Z,87.06
2023-05-15T19:44:44.623Z,86.03
2023-05-15T19:47:11.095Z,85.66
2023-05-15T19:49:37.560Z,86.10
2023-05-15T19:52:04.131Z,86.67
2023-05-15T19:54:30.597Z,87.75
2023-05-15T19:56:58.510Z,88.68
2023-05-15T19:59:24.991Z,88.49
2023-05-15T20:01:51.574Z,89.59
2023-05-15T20:04:19.047Z,89.78
2023-05-15T20:06:45.544Z,90.49
2023-05-15T20:09:11.987Z,91.90
2023-05-15T20:11:38.435Z,92.62
2023-05-15T20:14:04.851Z,92.37
2023-05-15T20:16:31.463Z,92.12
2023-05-15T20:18:58.107Z,92.75
2023-05-15T20:21:24.606Z,93.82
2023-05-15T20:23:51.188Z,94.10
2023-05-15T20:26:18.828Z,93.85
2023-05-15T20:28:45.718Z,92.33
2023-05-15T20:31:12.286Z,91.51
2023-05-15T20:33:38.844Z,92.21
2023-05-15T20:36:05.470Z,92.26
2023-05-15T20:38:33.824Z,91.72
2023-05-15T20:41:00.308Z,92.92
2023-05-15T20:43:26.781Z,94.07
2023-05-15T20:45:53.317Z,94.48
2023-05-15T20:48:19.848Z,93.42
2023-05-15T20:50:46.279Z,93.90
2023-05-15T20:53:13.234Z,94.00
2023-05-15T20:55:39.655Z,93.63
2023-05-15T20:58:06.092Z,93.82
2023-05-15T21:00:33.255Z,93.72
2023-05-15T21:02:59.913Z,93.58
2023-05-15T21:05:26.458Z,94.08
2023-05-15T21:07:52.966Z,94.53
2023-05-15T21:10:20.128Z,95.98
2023-05-15T21:12:46.575Z,96.01
2023-05-15T21:15:13.096Z,96.36
2023-05-15T21:17:40.096Z,96.29
2023-05-15T21:20:07.008Z,95.76
2023-05-15T21:22:34.262Z,95.50
2023-05-15T21:25:00.834Z,96.00
2023-05-15T21:27:27.370Z,95.50
2023-05-15T21:29:53.827Z,95.91
2023-05-15T21:32:23.041Z,97.15
2023-05-15T21:34:49.940Z,97.30
2023-05-15T21:37:16.485Z,97.22
2023-05-15T21:39:42.947Z,97.94
2023-05-15T21:42:10.020Z,98.72
2023-05-15T21:44:36.811Z,97.37
2023-05-15T21:47:03.445Z,96.94
2023-05-15T21:49:29.899Z,96.38
2023-05-15T21:51:56.374Z,97.43
2023-05-15T21:54:22.940Z,96.51
2023-05-15T21:56:49.430Z,96.49
2023-05-15T21:59:15.934Z,98.27
2023-05-15T22:01:42.583Z,97.90
2023-05-15T22:04:09.288Z,97.67
2023-05-15T22:06:35.850Z,98.40
2023-05-15T22:09:02.308Z,98.39
2023-05-15T22:11:28.818Z,98.51
2023-05-15T22:13:55.306Z,98.81
2023-05-15T22:16:21.852Z,98.36
2023-05-15T22:18:48.583Z,97.94
2023-05-15T22:21:15.412Z,98.27
2023-05-15T22:23:41.995Z,98.05
2023-05-15T22:26:08.546Z,98.00
2023-05-15T22:28:35.020Z,98.40
2023-05-15T22:31:01.532Z,98.21
2023-05-15T22:33:28.053Z,99.61
2023-05-15T22:35:54.690Z,100.00
2023-05-15T22:38:21.273Z,99.92
2023-05-15T22:40:51.141Z,99.28
2023-05-15T22:43:17.622Z,98.28
2023-05-15T22:45:44.182Z,97.93
2023-05-15T22:48:10.689Z,98.22
2023-05-15T22:50:37.439Z,98.50
2023-05-15T22:53:03.969Z,98.09
2023-05-15T22:55:30.618Z,97.77
2023-05-15T22:57:57.279Z,97.59
2023-05-15T23:00:23.775Z,96.65
2023-05-15T23:02:50.383Z,97.72
2023-05-15T23:05:16.957Z,97.35
2023-05-15T23:07:43.446Z,97.87
2023-05-15T23:10:10.039Z,97.37
2023-05-15T23:12:36.473Z,97.35
2023-05-15T23:15:03.108Z,97.31
2023-05-15T23:17:29.720Z,98.65
2023-05-15T23:19:56.224Z,98.95
2023-05-15T23:22:22.691Z,98.99
2023-05-15T23:24:49.138Z,99.21
2023-05-15T23:27:15.582Z,99.39
2023-05-15T23:29:42.071Z,98.81
2023-05-15T23:32:08.523Z,98.05
2023-05-15T23:34:35.070Z,97.87
2023-05-15T23:37:01.595Z,97.65
2023-05-15T23:39:28.039Z,97.56
2023-05-15T23:41:54.524Z,97.79
2023-05-15T23:44:21.216Z,96.76
2023-05-15T23:46:47.829Z,95.54
2023-05-15T23:49:14.290Z,94.63
2023-05-15T23:51:40.809Z,94.39
2023-05-15T23:54:07.480Z,93.77
2023-05-15T23:56:33.939Z,92.84
2023-05-15T23:59:00.772Z,93.60
